Time;durP1;ratioP1;P1;durP2;ratioP2;P2;SDS_P1;SDS_P2;PMS_P1;PMS_P2;Temp;Humidity;BMP_temperature;BMP_pressure;BME280_temperature;BME280_humidity;BME280_pressure;Samples;Min_cycle;Max_cycle;Signal;HPM_P1;HPM_P2
2022/09/19 00:00:42;;;;;;;1.20;1.20;;;12.90;89.50;;;;;;5086889;28;20304;-85
2022/09/19 00:03:08;;;;;;;1.43;1.40;;;13.00;89.70;;;;;;5085772;28;20191;-86
2022/09/19 00:05:38;;;;;;;1.50;1.40;;;12.90;88.90;;;;;;5098877;28;20277;-85
2022/09/19 00:08:04;;;;;;;3.03;1.30;;;13.00;88.50;;;;;;5094875;28;20182;-86
2022/09/19 00:10:29;;;;;;;2.00;1.60;;;13.00;89.20;;;;;;5094630;28;20206;-86
2022/09/19 00:12:55;;;;;;;2.07;1.30;;;12.80;89.80;;;;;;5104745;28;20196;-85
2022/09/19 00:15:22;;;;;;;2.10;1.47;;;12.60;90.40;;;;;;5113036;28;20189;-85
2022/09/19 00:17:50;;;;;;;1.53;1.43;;;12.70;89.80;;;;;;5097484;28;20222;-86
2022/09/19 00:20:16;;;;;;;1.10;1.10;;;12.70;90.10;;;;;;5101634;28;20211;-85
2022/09/19 00:24:45;;;;;;;1.83;1.30;;;12.60;90.50;;;;;;5093650;28;20191;-85
2022/09/19 00:25:28;;;;;;;1.30;1.20;;;12.60;90.90;;;;;;5089413;28;20249;-85
2022/09/19 00:27:54;;;;;;;1.20;1.20;;;12.40;91.20;;;;;;5090804;28;20224;-86
2022/09/19 00:30:20;;;;;;;1.20;1.20;;;12.30;91.80;;;;;;5090009;28;20212;-85
2022/09/19 00:32:46;;;;;;;1.30;1.30;;;12.20;92.60;;;;;;5086527;28;20738;-85
2022/09/19 00:35:12;;;;;;;1.60;1.27;;;12.10;92.80;;;;;;5087612;28;20198;-85
2022/09/19 00:37:38;;;;;;;1.30;1.30;;;12.10;93.00;;;;;;5090685;28;20216;-85
2022/09/19 00:40:05;;;;;;;1.20;1.20;;;12.20;92.20;;;;;;5087442;28;20216;-85
2022/09/19 00:42:31;;;;;;;1.50;1.40;;;12.20;92.70;;;;;;5090247;28;20241;-85
2022/09/19 00:44:58;;;;;;;1.30;1.30;;;12.20;93.10;;;;;;5088668;28;20218;-85
2022/09/19 00:47:33;;;;;;;1.40;1.30;;;12.20;92.80;;;;;;5082623;28;20186;-84
2022/09/19 00:50:02;;;;;;;1.20;1.20;;;12.40;92.50;;;;;;5091692;28;20204;-85
2022/09/19 00:52:34;;;;;;;1.40;1.30;;;12.40;92.40;;;;;;5087816;28;20664;-85
2022/09/19 00:55:01;;;;;;;1.20;1.20;;;12.30;91.30;;;;;;5088343;28;20250;-85
2022/09/19 00:57:39;;;;;;;1.33;1.20;;;12.20;91.10;;;;;;5094443;28;20233;-85
2022/09/19 01:00:06;;;;;;;3.13;1.50;;;12.20;91.50;;;;;;5097140;28;20290;-85
2022/09/19 01:02:32;;;;;;;1.63;1.37;;;12.10;91.20;;;;;;5101157;28;20218;-85
2022/09/19 01:05:01;;;;;;;1.80;1.30;;;12.00;92.10;;;;;;5112151;28;20194;-85
2022/09/19 01:07:28;;;;;;;1.30;1.30;;;11.90;91.80;;;;;;5110713;28;20187;-85
2022/09/19 01:09:58;;;;;;;1.23;1.20;;;11.90;92.30;;;;;;5087036;28;20652;-85
2022/09/19 01:12:52;;;;;;;1.20;1.20;;;12.00;92.20;;;;;;5096571;28;20250;-86
2022/09/19 01:15:19;;;;;;;1.40;1.30;;;12.10;92.10;;;;;;5089961;28;20206;-85
2022/09/19 01:17:49;;;;;;;1.40;1.30;;;12.10;92.10;;;;;;5092564;28;20564;-85
2022/09/19 01:20:39;;;;;;;1.43;1.33;;;12.20;91.50;;;;;;5097338;28;20271;-85
2022/09/19 01:23:07;;;;;;;1.80;1.30;;;12.20;91.40;;;;;;5094121;28;20183;-85
2022/09/19 01:25:46;;;;;;;2.40;1.50;;;12.10;91.50;;;;;;5093413;28;20269;-85
2022/09/19 01:28:22;;;;;;;1.23;1.20;;;11.90;92.00;;;;;;5093982;28;20187;-85
2022/09/19 01:31:22;;;;;;;1.30;1.30;;;11.80;93.60;;;;;;5095784;28;20291;-85
2022/09/19 01:34:13;;;;;;;1.50;1.40;;;11.80;93.80;;;;;;5082420;28;20197;-85
2022/09/19 01:36:46;;;;;;;1.60;1.50;;;11.70;92.60;;;;;;5089214;28;20189;-85
2022/09/19 01:39:16;;;;;;;1.60;1.50;;;11.70;92.70;;;;;;5093649;28;20182;-85
2022/09/19 01:41:51;;;;;;;1.30;1.30;;;11.50;92.40;;;;;;5100487;28;20191;-85
2022/09/19 01:44:23;;;;;;;1.60;1.50;;;11.50;92.90;;;;;;5098785;28;20175;-85
2022/09/19 01:47:15;;;;;;;1.50;1.40;;;11.40;92.70;;;;;;5093982;28;20186;-85
2022/09/19 01:50:04;;;;;;;1.50;1.40;;;11.20;93.10;;;;;;5093112;28;20224;-84
2022/09/19 01:52:36;;;;;;;1.63;1.53;;;11.00;93.50;;;;;;5092696;28;20305;-85
2022/09/19 01:55:20;;;;;;;1.53;1.43;;;11.00;93.30;;;;;;5107957;28;20180;-86
2022/09/19 01:58:10;;;;;;;2.20;1.40;;;11.10;92.60;;;;;;5099025;28;20231;-86
2022/09/19 02:00:40;;;;;;;1.40;1.40;;;11.20;90.30;;;;;;5099032;28;20211;-85
2022/09/19 02:03:25;;;;;;;1.70;1.60;;;11.20;91.00;;;;;;5105345;28;20181;-85
2022/09/19 02:06:00;;;;;;;1.50;1.40;;;11.10;91.70;;;;;;5099877;28;20182;-85
2022/09/19 02:09:03;;;;;;;2.50;1.33;;;11.10;92.30;;;;;;5100420;28;20187;-86
2022/09/19 02:11:29;;;;;;;1.60;1.50;;;11.20;91.80;;;;;;5107491;28;20678;-85
2022/09/19 02:13:59;;;;;;;1.20;1.20;;;11.20;92.10;;;;;;5106501;28;20212;-86
2022/09/19 02:16:47;;;;;;;1.40;1.40;;;11.30;91.60;;;;;;5103006;28;20211;-86
2022/09/19 02:19:31;;;;;;;1.50;1.40;;;11.40;90.50;;;;;;5093616;28;20191;-86
2022/09/19 02:22:01;;;;;;;1.50;1.40;;;11.40;90.90;;;;;;5091118;28;20202;-86
2022/09/19 02:24:36;;;;;;;1.30;1.30;;;11.40;91.10;;;;;;5103240;28;20189;-85
2022/09/19 02:27:20;;;;;;;1.60;1.50;;;11.50;90.90;;;;;;5095624;28;20281;-85
2022/09/19 02:29:52;;;;;;;1.80;1.43;;;11.50;89.90;;;;;;5087173;28;20179;-85
2022/09/19 02:32:19;;;;;;;1.50;1.40;;;11.50;90.00;;;;;;5095486;28;20186;-85
2022/09/19 02:34:48;;;;;;;1.60;1.50;;;11.50;90.50;;;;;;5096210;28;20206;-85
2022/09/19 02:37:35;;;;;;;1.60;1.50;;;11.50;90.10;;;;;;5098874;28;20217;-85
2022/09/19 02:40:20;;;;;;;1.57;1.47;;;11.50;90.20;;;;;;5099805;28;20211;-86
2022/09/19 02:42:57;;;;;;;1.57;1.40;;;11.50;90.70;;;;;;5104210;28;20208;-87
2022/09/19 02:45:37;;;;;;;1.50;1.40;;;11.50;90.10;;;;;;5095112;28;20194;-85
2022/09/19 02:48:36;;;;;;;1.33;1.33;;;11.50;91.20;;;;;;5096079;28;20190;-85
2022/09/19 02:51:28;;;;;;;2.27;1.57;;;11.50;90.40;;;;;;5100890;28;20206;-86
2022/09/19 02:53:58;;;;;;;1.53;1.43;;;11.40;90.00;;;;;;5104727;28;20179;-85
2022/09/19 02:56:29;;;;;;;1.60;1.50;;;11.30;91.20;;;;;;5097588;28;20222;-86
2022/09/19 02:59:06;;;;;;;1.70;1.60;;;11.20;90.70;;;;;;5097610;28;20237;-87
2022/09/19 03:01:34;;;;;;;1.70;1.60;;;11.20;91.30;;;;;;5105905;28;20186;-87
2022/09/19 03:04:14;;;;;;;1.50;1.40;;;11.20;91.00;;;;;;5096106;28;20259;-86
2022/09/19 03:06:40;;;;;;;1.90;1.60;;;11.30;91.20;;;;;;5090891;28;20194;-85
2022/09/19 03:09:08;;;;;;;1.40;1.40;;;11.40;91.50;;;;;;5093908;28;20251;-85
2022/09/19 03:11:36;;;;;;;1.70;1.60;;;11.50;91.50;;;;;;5095470;28;20698;-86
2022/09/19 03:14:02;;;;;;;1.60;1.50;;;11.50;90.90;;;;;;5093614;28;20229;-85
2022/09/19 03:16:34;;;;;;;2.70;1.50;;;11.50;90.90;;;;;;5090046;28;20190;-85
2022/09/19 03:19:05;;;;;;;1.57;1.47;;;11.50;90.70;;;;;;5089205;28;20306;-85
2022/09/19 03:21:31;;;;;;;1.60;1.50;;;11.40;90.60;;;;;;5084870;28;20730;-85
2022/09/19 03:24:00;;;;;;;1.60;1.50;;;11.40;91.30;;;;;;5089007;28;20186;-86
2022/09/19 03:26:30;;;;;;;1.30;1.30;;;11.40;91.10;;;;;;5092026;28;20240;-86
2022/09/19 03:28:57;;;;;;;1.70;1.60;;;11.30;91.10;;;;;;5089343;28;20329;-85
2022/09/19 03:31:24;;;;;;;1.70;1.60;;;11.20;91.10;;;;;;5096464;28;20225;-85
2022/09/19 03:33:51;;;;;;;1.60;1.50;;;11.10;92.30;;;;;;5095600;28;20618;-85
2022/09/19 03:36:18;;;;;;;1.53;1.47;;;10.90;93.00;;;;;;5091209;28;20273;-86
2022/09/19 03:38:44;;;;;;;1.97;1.87;;;10.90;93.60;;;;;;5091433;28;20561;-86
2022/09/19 03:41:15;;;;;;;2.43;1.40;;;10.90;93.70;;;;;;5091261;28;20209;-85
2022/09/19 03:43:44;;;;;;;1.93;1.63;;;11.00;95.10;;;;;;5092531;28;20186;-86
2022/09/19 03:46:15;;;;;;;2.97;1.60;;;11.10;94.10;;;;;;5097032;28;20211;-85
2022/09/19 03:48:44;;;;;;;1.30;1.30;;;11.20;93.50;;;;;;5091608;28;20287;-87
2022/09/19 03:51:10;;;;;;;3.30;1.67;;;11.30;93.20;;;;;;5093298;28;20246;-85
2022/09/19 03:53:36;;;;;;;3.00;1.80;;;11.30;93.10;;;;;;5097354;28;20221;-85
2022/09/19 03:56:03;;;;;;;1.60;1.50;;;11.30;92.50;;;;;;5098231;28;20201;-86
2022/09/19 03:58:30;;;;;;;1.80;1.63;;;11.30;92.70;;;;;;5101079;28;20202;-86
2022/09/19 04:00:56;;;;;;;2.63;1.73;;;11.30;93.40;;;;;;5088851;28;20234;-85
2022/09/19 04:03:23;;;;;;;2.37;1.73;;;11.30;93.00;;;;;;5094716;28;20202;-86
2022/09/19 04:05:51;;;;;;;2.30;2.00;;;11.10;93.40;;;;;;5096247;28;20175;-86
2022/09/19 04:08:16;;;;;;;3.23;1.93;;;10.90;95.00;;;;;;5095480;28;20178;-85
2022/09/19 04:10:42;;;;;;;1.90;1.80;;;10.70;96.40;;;;;;5095273;28;20271;-86
2022/09/19 04:13:10;;;;;;;2.33;1.90;;;10.60;97.30;;;;;;5096758;28;20186;-87
2022/09/19 04:15:36;;;;;;;2.10;2.00;;;10.50;98.00;;;;;;5094906;28;20184;-85
2022/09/19 04:18:03;;;;;;;2.73;2.10;;;10.50;99.20;;;;;;5094362;28;20247;-86
2022/09/19 04:20:30;;;;;;;1.80;1.70;;;10.50;99.20;;;;;;5089860;28;20195;-86
2022/09/19 04:22:59;;;;;;;2.53;1.90;;;10.60;98.20;;;;;;5094483;28;20209;-86
2022/09/19 04:25:29;;;;;;;2.13;1.80;;;10.70;97.80;;;;;;5090295;28;20272;-86
2022/09/19 04:27:56;;;;;;;2.40;1.87;;;10.70;97.60;;;;;;5087351;28;20724;-85
2022/09/19 04:30:24;;;;;;;1.90;1.77;;;10.80;96.90;;;;;;5095160;28;20231;-86
2022/09/19 04:32:50;;;;;;;2.00;1.80;;;10.80;96.30;;;;;;5107163;28;20185;-86
2022/09/19 04:35:16;;;;;;;2.00;1.90;;;10.80;95.90;;;;;;5098962;28;20195;-86
2022/09/19 04:37:41;;;;;;;4.33;1.97;;;10.60;96.60;;;;;;5101448;28;20275;-85
2022/09/19 04:40:08;;;;;;;2.50;2.10;;;10.50;98.30;;;;;;5096683;28;20220;-86
2022/09/19 04:42:34;;;;;;;6.43;2.10;;;10.50;98.60;;;;;;5099237;28;20202;-86
2022/09/19 04:45:00;;;;;;;2.30;2.10;;;10.50;98.80;;;;;;5101888;28;20172;-87
2022/09/19 04:47:28;;;;;;;2.90;2.17;;;10.50;98.30;;;;;;5105912;28;20210;-87
2022/09/19 04:49:56;;;;;;;3.53;2.00;;;10.50;97.90;;;;;;5103871;28;20193;-85
2022/09/19 04:52:24;;;;;;;2.33;2.17;;;10.30;99.80;;;;;;5100573;28;20195;-85
2022/09/19 04:54:51;;;;;;;2.93;1.80;;;10.10;99.90;;;;;;5104403;28;20176;-85
2022/09/19 04:57:17;;;;;;;2.10;2.00;;;10.00;99.90;;;;;;5099348;28;20441;-85
2022/09/19 04:59:42;;;;;;;3.83;2.20;;;9.90;99.90;;;;;;5094884;28;20436;-85
2022/09/19 05:02:08;;;;;;;3.50;2.30;;;9.80;99.90;;;;;;5091089;28;20237;-86
2022/09/19 05:04:35;;;;;;;4.27;2.13;;;9.80;99.90;;;;;;5103372;28;20629;-85
2022/09/19 05:07:02;;;;;;;3.77;2.27;;;9.80;99.90;;;;;;5104228;28;20592;-85
2022/09/19 05:09:28;;;;;;;3.37;2.30;;;9.80;99.90;;;;;;5097224;28;20241;-86
2022/09/19 05:11:55;;;;;;;3.90;2.17;;;9.80;99.90;;;;;;5095432;28;20222;-86
2022/09/19 05:14:22;;;;;;;3.10;1.97;;;9.90;99.90;;;;;;5095585;28;20189;-85
2022/09/19 05:16:50;;;;;;;2.70;2.50;;;10.10;99.90;;;;;;5098943;28;20191;-86
2022/09/19 05:19:16;;;;;;;2.20;2.00;;;10.10;99.90;;;;;;5105901;28;20409;-85
2022/09/19 05:21:44;;;;;;;2.43;2.23;;;10.20;99.90;;;;;;5093273;28;20282;-86
2022/09/19 05:24:10;;;;;;;2.57;2.00;;;10.30;99.90;;;;;;5091761;28;20215;-85
2022/09/19 05:26:40;;;;;;;6.70;2.27;;;10.30;99.90;;;;;;5094953;28;20190;-85
2022/09/19 05:29:06;;;;;;;3.73;2.27;;;10.10;99.90;;;;;;5096303;28;20220;-85
2022/09/19 05:31:32;;;;;;;4.23;2.37;;;10.20;99.90;;;;;;5095447;28;20385;-85
2022/09/19 05:34:00;;;;;;;2.70;2.50;;;10.20;99.90;;;;;;5102916;28;20185;-85
2022/09/19 05:36:27;;;;;;;4.00;2.27;;;10.10;99.90;;;;;;5098422;28;20185;-85
2022/09/19 05:38:53;;;;;;;2.40;2.03;;;10.10;99.90;;;;;;5108114;28;20274;-86
2022/09/19 05:41:19;;;;;;;2.60;2.40;;;10.30;99.90;;;;;;5104145;28;20200;-87
2022/09/19 05:43:44;;;;;;;4.07;2.63;;;10.20;99.90;;;;;;5105774;28;20181;-86
2022/09/19 05:46:10;;;;;;;3.20;2.60;;;10.30;99.90;;;;;;5102725;28;20295;-86
2022/09/19 05:48:37;;;;;;;3.10;2.50;;;10.40;99.90;;;;;;5106298;28;20185;-86
2022/09/19 05:51:04;;;;;;;3.30;2.37;;;10.50;99.90;;;;;;5112631;28;20201;-86
2022/09/19 05:56:14;;;;;;;3.23;2.50;;;10.50;99.90;;;;;;5097191;28;20235;-85
2022/09/19 05:58:40;;;;;;;4.67;2.43;;;10.40;99.90;;;;;;5100385;28;20671;-85
2022/09/19 06:01:07;;;;;;;2.87;2.33;;;10.30;99.90;;;;;;5098103;28;20272;-86
2022/09/19 06:03:34;;;;;;;4.47;2.40;;;10.30;99.90;;;;;;5098962;28;20351;-85
2022/09/19 06:06:00;;;;;;;3.70;2.50;;;10.30;99.90;;;;;;5097854;28;20251;-85
2022/09/19 06:08:26;;;;;;;3.03;2.53;;;10.30;99.90;;;;;;5097565;28;20187;-85
2022/09/19 06:10:52;;;;;;;4.50;2.90;;;10.40;99.90;;;;;;5099551;28;20217;-85
2022/09/19 06:13:20;;;;;;;4.50;2.93;;;10.30;99.90;;;;;;5102764;28;20257;-86
2022/09/19 06:15:47;;;;;;;3.10;2.60;;;10.40;99.90;;;;;;5095435;28;20258;-85
2022/09/19 06:18:13;;;;;;;3.33;2.63;;;10.40;99.90;;;;;;5097446;28;20237;-86
2022/09/19 06:20:40;;;;;;;2.83;2.33;;;10.40;99.90;;;;;;5092473;28;20207;-85
2022/09/19 06:23:08;;;;;;;4.37;2.50;;;10.30;99.90;;;;;;5094464;28;20524;-86
2022/09/19 06:25:35;;;;;;;3.53;2.27;;;10.30;99.90;;;;;;5094890;28;20183;-86
2022/09/19 06:28:05;;;;;;;4.80;2.40;;;10.40;99.90;;;;;;5102203;28;20202;-86
2022/09/19 06:30:31;;;;;;;3.63;2.60;;;10.50;99.90;;;;;;5096095;28;20307;-87
2022/09/19 06:32:57;;;;;;;5.07;2.67;;;10.40;99.90;;;;;;5105273;28;20222;-86
2022/09/19 06:35:25;;;;;;;5.17;2.60;;;10.40;99.90;;;;;;5101893;28;20199;-87
2022/09/19 06:38:01;;;;;;;3.73;2.33;;;10.50;99.90;;;;;;5094794;28;20269;-84
2022/09/19 06:40:29;;;;;;;4.50;2.30;;;10.50;99.90;;;;;;5097032;28;20290;-85
2022/09/19 06:43:02;;;;;;;2.47;2.17;;;10.50;99.90;;;;;;5101683;28;20182;-85
2022/09/19 06:45:29;;;;;;;3.03;2.23;;;10.50;99.90;;;;;;5100108;28;20193;-85
2022/09/19 06:47:59;;;;;;;3.70;2.80;;;10.50;99.90;;;;;;5103547;28;20203;-86
2022/09/19 06:50:26;;;;;;;3.77;2.30;;;10.60;99.90;;;;;;5102261;28;20208;-84
2022/09/19 06:52:53;;;;;;;4.20;2.70;;;10.50;99.90;;;;;;5092572;28;20274;-85
2022/09/19 06:55:18;;;;;;;4.27;2.37;;;10.60;99.90;;;;;;5086020;28;20199;-85
2022/09/19 06:57:56;;;;;;;4.70;2.40;;;10.80;99.90;;;;;;5084243;28;20570;-85
2022/09/19 07:00:24;;;;;;;4.67;2.60;;;10.70;99.90;;;;;;5085251;28;20211;-85
2022/09/19 07:03:01;;;;;;;3.07;2.57;;;10.80;99.90;;;;;;5087229;28;20203;-85
2022/09/19 07:05:30;;;;;;;3.03;2.30;;;10.70;99.90;;;;;;5083984;28;20199;-85
2022/09/19 07:07:55;;;;;;;4.50;2.60;;;10.80;99.90;;;;;;5091462;28;20188;-86
2022/09/19 07:10:21;;;;;;;4.07;2.57;;;10.90;99.90;;;;;;5089580;28;20207;-85
2022/09/19 07:13:01;;;;;;;4.10;2.37;;;10.90;99.90;;;;;;5085017;28;20184;-85
2022/09/19 07:15:36;;;;;;;2.33;2.10;;;11.00;99.90;;;;;;5086118;28;20270;-85
2022/09/19 07:18:03;;;;;;;3.63;2.30;;;11.00;99.90;;;;;;5087358;28;20212;-85
2022/09/19 07:20:29;;;;;;;2.73;2.53;;;11.20;99.90;;;;;;5087378;28;20201;-86
2022/09/19 07:22:58;;;;;;;5.07;2.90;;;11.10;99.90;;;;;;5085237;28;20269;-85
2022/09/19 07:25:26;;;;;;;7.23;2.50;;;11.10;99.90;;;;;;5088539;28;20216;-86
2022/09/19 07:28:00;;;;;;;4.23;2.50;;;11.10;99.90;;;;;;5085050;28;20223;-85
2022/09/19 07:30:27;;;;;;;3.53;2.50;;;10.90;99.90;;;;;;5085003;28;20698;-86
2022/09/19 07:32:57;;;;;;;4.13;2.30;;;11.00;99.90;;;;;;5089473;28;20199;-86
2022/09/19 07:35:25;;;;;;;2.43;2.20;;;11.00;99.90;;;;;;5088987;28;20221;-86
2022/09/19 07:37:51;;;;;;;4.83;2.47;;;11.10;99.90;;;;;;5084274;28;20671;-85
2022/09/19 07:40:17;;;;;;;6.33;2.70;;;11.10;99.90;;;;;;5084517;28;20202;-85
2022/09/19 07:42:43;;;;;;;2.93;2.57;;;11.20;99.90;;;;;;5089483;28;20681;-85
2022/09/19 07:45:09;;;;;;;3.73;2.43;;;11.20;99.90;;;;;;5088449;28;20182;-85
2022/09/19 07:47:40;;;;;;;2.83;2.20;;;11.30;99.90;;;;;;5085807;28;20208;-85
2022/09/19 07:50:07;;;;;;;3.40;2.57;;;11.50;99.90;;;;;;5096340;28;20212;-85
2022/09/19 07:52:32;;;;;;;6.23;2.50;;;11.50;99.90;;;;;;5087871;28;20185;-85
2022/09/19 07:54:58;;;;;;;7.07;2.60;;;11.50;99.90;;;;;;5087814;28;20220;-85
2022/09/19 07:57:24;;;;;;;4.77;2.80;;;11.40;98.80;;;;;;5086834;28;20219;-85
2022/09/19 07:59:50;;;;;;;5.73;2.50;;;11.40;99.50;;;;;;5086593;28;20202;-85
2022/09/19 08:02:16;;;;;;;6.87;2.20;;;11.50;98.70;;;;;;5091863;28;20575;-87
2022/09/19 08:04:41;;;;;;;3.07;2.40;;;11.50;99.00;;;;;;5081384;28;20189;-85
2022/09/19 08:07:08;;;;;;;3.63;2.60;;;11.60;98.60;;;;;;5085046;28;20195;-85
2022/09/19 08:09:34;;;;;;;5.40;2.70;;;11.60;98.00;;;;;;5080382;28;20272;-84
2022/09/19 08:12:04;;;;;;;5.20;2.70;;;11.70;97.50;;;;;;5083168;28;20726;-85
2022/09/19 08:14:30;;;;;;;2.60;2.40;;;11.70;98.60;;;;;;5082462;28;20191;-85
2022/09/19 08:16:56;;;;;;;4.07;2.37;;;11.60;97.80;;;;;;5080231;28;20193;-86
2022/09/19 08:19:21;;;;;;;4.10;2.27;;;11.70;95.40;;;;;;5085854;28;20180;-85
2022/09/19 08:21:49;;;;;;;4.07;2.50;;;11.60;98.30;;;;;;5087720;28;20205;-85
2022/09/19 08:24:14;;;;;;;5.90;2.83;;;11.70;97.70;;;;;;5084684;28;20185;-85
2022/09/19 08:26:41;;;;;;;4.30;2.40;;;11.80;97.00;;;;;;5086946;28;20236;-85
2022/09/19 08:29:07;;;;;;;4.60;2.50;;;11.90;96.80;;;;;;5091671;28;20185;-85
2022/09/19 08:31:33;;;;;;;3.80;2.40;;;11.90;99.20;;;;;;5082129;28;20340;-85
2022/09/19 08:33:59;;;;;;;7.43;2.60;;;11.90;98.10;;;;;;5086249;28;20704;-85
2022/09/19 08:36:24;;;;;;;3.60;2.50;;;11.90;97.90;;;;;;5081459;28;20191;-85
2022/09/19 08:38:50;;;;;;;5.43;2.57;;;12.10;95.90;;;;;;5106313;28;20221;-86
2022/09/19 08:41:38;;;;;;;3.73;2.43;;;12.20;95.50;;;;;;5108829;28;20273;-86
2022/09/19 08:44:25;;;;;;;4.47;2.60;;;12.30;94.90;;;;;;5086447;28;20183;-85
2022/09/19 08:47:19;;;;;;;3.80;2.50;;;12.40;92.40;;;;;;5083034;28;20684;-85
2022/09/19 08:50:11;;;;;;;5.27;2.67;;;12.30;93.10;;;;;;5083457;28;20189;-85
2022/09/19 08:52:44;;;;;;;3.10;2.80;;;12.20;93.30;;;;;;5096560;28;20196;-85
2022/09/19 08:55:32;;;;;;;7.13;2.80;;;12.10;94.90;;;;;;5097047;28;20185;-85
2022/09/19 08:58:11;;;;;;;5.03;2.50;;;12.30;92.70;;;;;;5088567;28;20206;-85
2022/09/19 09:00:40;;;;;;;5.80;2.67;;;12.40;93.60;;;;;;5082274;28;20209;-85
2022/09/19 09:03:13;;;;;;;4.83;2.63;;;12.60;91.70;;;;;;5084906;28;20183;-85
2022/09/19 09:05:55;;;;;;;5.57;3.23;;;12.80;91.60;;;;;;5082072;28;20232;-85
2022/09/19 09:08:46;;;;;;;2.40;2.20;;;12.70;92.60;;;;;;5093517;28;20755;-85
2022/09/19 09:11:32;;;;;;;3.20;2.90;;;12.70;90.70;;;;;;5095370;28;20245;-85
2022/09/19 09:14:12;;;;;;;7.10;3.20;;;13.00;90.30;;;;;;5096710;28;20193;-84
2022/09/19 09:17:01;;;;;;;4.00;2.50;;;13.00;90.90;;;;;;5098645;28;20193;-84
2022/09/19 09:19:51;;;;;;;4.33;2.83;;;13.10;87.70;;;;;;5097644;28;20182;-84
2022/09/19 09:22:32;;;;;;;6.57;2.90;;;13.00;89.20;;;;;;5094919;28;20248;-83
2022/09/19 09:25:10;;;;;;;6.73;2.70;;;12.90;90.70;;;;;;5096802;28;20663;-84
2022/09/19 09:27:48;;;;;;;5.67;2.70;;;13.00;88.60;;;;;;5100945;28;20190;-84
2022/09/19 09:30:17;;;;;;;7.90;2.90;;;12.90;91.20;;;;;;5107036;28;20476;-84
2022/09/19 09:32:53;;;;;;;5.73;2.87;;;12.90;91.10;;;;;;5108213;28;20190;-86
2022/09/19 09:35:28;;;;;;;6.47;2.60;;;13.00;91.90;;;;;;5105422;28;20208;-87
2022/09/19 09:38:16;;;;;;;5.20;2.57;;;13.20;88.70;;;;;;5108943;28;20602;-85
2022/09/19 09:44:13;;;;;;;6.20;2.80;;;13.50;87.80;;;;;;5106244;28;20253;-85
2022/09/19 09:47:06;;;;;;;5.73;2.80;;;13.70;88.90;;;;;;5109633;28;20196;-85
2022/09/19 09:49:33;;;;;;;4.53;2.90;;;13.70;89.10;;;;;;5104878;28;20193;-85
2022/09/19 09:52:20;;;;;;;5.73;2.90;;;13.80;86.30;;;;;;5108570;28;20197;-85
2022/09/19 09:58:08;;;;;;;6.77;3.10;;;13.50;88.60;;;;;;5105748;28;20723;-85
2022/09/19 10:03:41;;;;;;;5.10;2.63;;;13.80;85.70;;;;;;5096100;28;20182;-85
2022/09/19 10:06:43;;;;;;;5.10;2.90;;;13.70;88.70;;;;;;5090564;28;20271;-86
2022/09/19 10:09:14;;;;;;;7.47;2.57;;;14.00;87.90;;;;;;5089810;28;20329;-85
2022/09/19 10:11:56;;;;;;;5.80;2.93;;;14.20;83.90;;;;;;5094388;28;20210;-85
2022/09/19 10:14:25;;;;;;;3.50;2.57;;;14.30;83.70;;;;;;5095214;28;20278;-85
2022/09/19 10:16:53;;;;;;;5.43;3.30;;;14.60;82.60;;;;;;5101207;28;20281;-85
2022/09/19 10:19:49;;;;;;;3.20;2.80;;;14.80;83.30;;;;;;5097744;28;20226;-85
2022/09/19 10:22:16;;;;;;;5.27;2.90;;;14.80;83.00;;;;;;5092243;28;20182;-84
2022/09/19 10:24:56;;;;;;;5.30;2.90;;;15.00;80.60;;;;;;5093008;28;20185;-84
2022/09/19 10:27:31;;;;;;;4.97;2.83;;;15.00;82.30;;;;;;5095466;28;20178;-84
2022/09/19 10:29:59;;;;;;;5.80;2.83;;;15.20;82.00;;;;;;5089680;28;20186;-84
2022/09/19 10:32:28;;;;;;;4.10;2.53;;;15.50;80.20;;;;;;5090539;28;20218;-85
2022/09/19 10:34:54;;;;;;;5.20;3.27;;;15.50;78.70;;;;;;5092043;28;20204;-85
2022/09/19 10:37:25;;;;;;;7.10;2.97;;;15.60;79.30;;;;;;5096169;28;20833;-84
2022/09/19 10:39:52;;;;;;;7.00;2.80;;;15.30;79.70;;;;;;5092580;28;20183;-84
2022/09/19 10:42:30;;;;;;;6.17;2.80;;;15.20;79.30;;;;;;5084805;28;20256;-85
2022/09/19 10:44:59;;;;;;;11.33;9.30;;;15.30;79.10;;;;;;5090101;28;20198;-85
2022/09/19 10:47:28;;;;;;;7.67;2.87;;;15.20;79.50;;;;;;5073563;28;20190;-85
2022/09/19 10:50:00;;;;;;;3.27;2.97;;;15.40;79.40;;;;;;5088168;28;20209;-85
2022/09/19 10:52:30;;;;;;;6.33;3.03;;;15.50;79.50;;;;;;5090177;28;20206;-84
2022/09/19 10:55:00;;;;;;;6.37;3.00;;;15.70;80.10;;;;;;5089867;28;20183;-84
2022/09/19 10:57:45;;;;;;;3.60;2.63;;;16.20;78.50;;;;;;5092269;28;20231;-84
2022/09/19 11:00:28;;;;;;;6.17;3.93;;;16.60;72.10;;;;;;5088472;28;20248;-86
2022/09/19 11:02:57;;;;;;;7.57;2.90;;;17.00;70.60;;;;;;5090392;28;20745;-85
2022/09/19 11:05:29;;;;;;;6.17;2.77;;;17.40;67.40;;;;;;5088191;28;20673;-86
2022/09/19 11:07:59;;;;;;;4.27;2.63;;;17.20;66.10;;;;;;5087723;28;20183;-85
2022/09/19 11:10:33;;;;;;;4.33;3.00;;;17.00;66.90;;;;;;5091720;28;20612;-85
2022/09/19 11:13:13;;;;;;;8.33;2.73;;;16.70;68.20;;;;;;5090452;28;20233;-85
2022/09/19 11:16:05;;;;;;;3.87;2.40;;;16.70;68.80;;;;;;5084982;28;20593;-85
2022/09/19 11:18:49;;;;;;;3.83;2.40;;;16.70;67.70;;;;;;5085200;28;20314;-85
2022/09/19 11:21:27;;;;;;;6.07;3.20;;;16.50;69.60;;;;;;5087675;28;20753;-85
2022/09/19 11:24:28;;;;;;;6.10;2.73;;;16.30;73.50;;;;;;5100218;28;20213;-84
2022/09/19 11:27:10;;;;;;;5.80;3.00;;;16.30;73.50;;;;;;5067160;28;20329;-84
2022/09/19 11:30:14;;;;;;;4.93;2.87;;;16.20;74.90;;;;;;5111891;28;20175;-84
2022/09/19 11:32:47;;;;;;;4.10;2.80;;;15.90;74.50;;;;;;5083828;28;20203;-85
2022/09/19 11:35:44;;;;;;;4.80;2.70;;;15.90;75.70;;;;;;5089432;28;20189;-85
2022/09/19 11:38:32;;;;;;;5.03;2.80;;;16.40;71.20;;;;;;5089474;28;20221;-85
2022/09/19 11:41:27;;;;;;;4.03;2.80;;;16.60;73.10;;;;;;5090709;28;20295;-85
2022/09/19 11:44:15;;;;;;;5.90;2.80;;;17.40;70.30;;;;;;5087293;28;20226;-85
2022/09/19 11:46:54;;;;;;;4.43;2.53;;;17.70;67.20;;;;;;5063666;28;20187;-85
2022/09/19 11:49:32;;;;;;;7.20;3.03;;;17.60;65.20;;;;;;5088150;28;20185;-86
2022/09/19 11:52:15;;;;;;;3.53;2.55;;;18.60;62.40;;;;;;5089537;28;20295;-85
2022/09/19 11:54:58;;;;;;;4.70;2.90;;;18.40;60.00;;;;;;5090065;28;20188;-85
2022/09/19 11:57:59;;;;;;;5.72;3.00;;;18.70;64.00;;;;;;5091366;28;20227;-85
2022/09/19 12:00:26;;;;;;;4.70;2.58;;;18.90;59.70;;;;;;5089114;28;20205;-85
2022/09/19 12:03:23;;;;;;;4.65;2.70;;;19.40;55.80;;;;;;5097628;28;20209;-86
2022/09/19 12:06:34;;;;;;;5.70;2.35;;;19.30;58.00;;;;;;5104706;28;20559;-84
2022/09/19 12:09:14;;;;;;;4.05;2.58;;;19.30;54.90;;;;;;5101644;28;20201;-85
2022/09/19 12:12:01;;;;;;;3.00;2.35;;;19.60;57.60;;;;;;5093733;28;20233;-85
2022/09/19 12:14:33;;;;;;;3.65;2.40;;;19.50;58.20;;;;;;5091124;28;20175;-86
2022/09/19 12:17:08;;;;;;;4.32;2.55;;;20.30;53.40;;;;;;5092174;28;20185;-86
2022/09/19 12:19:45;;;;;;;4.47;2.58;;;20.60;54.10;;;;;;5090819;28;20202;-85
2022/09/19 12:22:31;;;;;;;3.72;2.75;;;19.90;55.90;;;;;;5081838;28;20229;-86
2022/09/19 12:25:08;;;;;;;3.60;2.47;;;19.50;59.00;;;;;;5083741;28;20644;-86
2022/09/19 12:27:43;;;;;;;4.45;2.40;;;19.70;56.10;;;;;;5091266;28;20522;-85
2022/09/19 12:30:15;;;;;;;4.53;3.38;;;20.30;55.60;;;;;;5091908;28;20210;-85
2022/09/19 12:33:06;;;;;;;3.05;2.70;;;20.00;55.10;;;;;;5089956;28;20262;-85
2022/09/19 12:36:10;;;;;;;3.65;2.83;;;20.20;55.60;;;;;;5092195;28;20304;-85
2022/09/19 12:38:49;;;;;;;5.13;2.63;;;20.90;54.40;;;;;;5092995;28;20582;-85
2022/09/19 12:41:46;;;;;;;3.33;2.53;;;20.70;53.50;;;;;;5084895;28;20210;-86
2022/09/19 12:44:19;;;;;;;4.82;2.63;;;20.60;55.30;;;;;;5088359;28;20278;-86
2022/09/19 12:46:45;;;;;;;5.07;2.70;;;20.10;56.70;;;;;;5098745;28;20179;-85
2022/09/19 12:49:22;;;;;;;3.70;2.58;;;19.50;58.00;;;;;;5103248;28;20203;-85
2022/09/19 12:51:53;;;;;;;3.53;2.72;;;19.70;58.50;;;;;;5091603;28;20221;-85
2022/09/19 12:54:43;;;;;;;6.38;3.00;;;19.80;58.00;;;;;;5092096;28;20613;-85
2022/09/19 12:57:38;;;;;;;3.25;2.70;;;19.50;58.40;;;;;;5086199;28;20206;-85
2022/09/19 13:00:05;;;;;;;3.28;2.55;;;19.10;58.80;;;;;;5082831;28;20210;-85
2022/09/19 13:02:40;;;;;;;3.35;2.90;;;18.50;60.50;;;;;;5092163;28;20237;-85
2022/09/19 13:05:27;;;;;;;5.22;2.90;;;18.30;61.00;;;;;;5092002;28;20545;-86
2022/09/19 13:07:57;;;;;;;4.00;2.63;;;19.00;62.50;;;;;;5087574;28;20194;-87
2022/09/19 13:10:44;;;;;;;5.10;3.08;;;19.40;60.10;;;;;;5092525;28;20682;-86
2022/09/19 13:13:42;;;;;;;4.03;2.85;;;20.10;57.30;;;;;;5090442;28;20247;-87
2022/09/19 13:16:11;;;;;;;4.10;2.70;;;20.50;57.20;;;;;;5092546;28;20193;-87
2022/09/19 13:24:28;;;;;;;3.65;2.72;;;21.00;51.70;;;;;;5094254;28;20773;-87
2022/09/19 13:26:56;;;;;;;3.65;2.45;;;19.90;57.40;;;;;;5090155;28;20193;-87
2022/09/19 13:29:28;;;;;;;3.40;2.97;;;19.50;58.10;;;;;;5089721;28;20208;-87
2022/09/19 13:31:57;;;;;;;4.38;3.90;;;20.10;63.80;;;;;;5094655;28;20218;-86
2022/09/19 13:35:00;;;;;;;4.18;2.65;;;20.80;56.00;;;;;;5091152;28;20538;-86
2022/09/19 13:37:28;;;;;;;5.40;3.00;;;20.10;60.50;;;;;;5093593;28;20232;-86